Aeroporto :
LOGIN :

Iscrizione | Disclaimer

   EN    FR    IT 

 










Sommario :    VFR   VFR Marginale   IFR   IFR Intensivo   IFR Molto Intensivo
Visibilità : 
Base nubi : 
>= 8 km
>= 3000ft
5 / 8 km
1000 / 3000 ft
1500m / 5 km
500 / 1000 ft
800 / 1500m
200 / 500 ft
< 800m
< 200 ft
Simboli :   Temporali  Nebbia  Neve Forte  Precipitazioni Forti  Vento > 20 kt
SIGMETs :   Varie  Temporali  Ghiacco  Turbolenza  Onda orograficha  Ceneri Vulcaniche






- Altitudine del aeroporto : 1260 ft
- Codice IATA : LDE


LFBT - Tarbes / Ossun

ULTIMO METAR :
  • 090100Z AUTO 26011KT CAVOK 09/04 Q1023 BECMG 27017G27KT

METARs OBSOLETI :
  • 090030Z AUTO 24006KT CAVOK 07/05 Q1023 BECMG 27017G27KT
  • 090000Z AUTO 24011KT CAVOK 08/05 Q1023 BECMG 27017G27KT
  • 082330Z AUTO 23010KT CAVOK 08/05 Q1023 TEMPO 27018G30KT
  • 082300Z AUTO 24010KT CAVOK 09/06 Q1024 TEMPO 27018G30KT
  • 082230Z AUTO 21005KT 180V290 CAVOK 08/06 Q1024 TEMPO 27018G30KT

TAF TAF LFBT
Valido dal 09 a 00 ore il 10 a 00 ore UTC


082300Z 0900/0924 27012KT CAVOK
BECMG 0900/0902 27017G27KT
BECMG 0902/0904 BKN030
TEMPO 0903/0917 27020G38KT
PROB40
TEMPO 0903/0924 4000 RA BKN013TCU
BECMG 0921/0923 26010KT



MetMap, La meteo Aeronautica in un colpo d'occhio ! - Copyright ORBIFLY Dicembre 2007 - Disclaimer

ORBIFLY MET'MAP TEAM :

Programmazione e sviluppo : Alexandra Zaïnal
Concezione : Baudouin d'Aumeries
Aiuto per la programmazione : Marc-Olivier Méhu
Supporto tecnico e logistico : Manuel Goepfert
Aiuto per la traduzione : Arnaldo La Scala

Contatto : metmap@orbifly.com




FONTI E CREDITI :

   NOAA